Startzville, Texas
Current Conditions -  °F | °C
As of 6:51 AM on Monday 22 Dec 2014 (Local Time) from KBAZ Reporting Station
Haze Haze  
Wind Chill: 58°   Ceiling: 1500
Heat Index: 58°   Visibility: 10mi
Dew Point: 55°   Wind: 9mph
Humidity: 90%   Direction: 240°WSW
Pressure: 29.75"   Gusts: NA
Location:  29.8812°N, 98.2387°W
Report Text: KBAZ 221251Z 24008KT 10SM BR OVC015 14/13 A2975 RMK AO2 SLP071 T01440128
Loading
Personal Weather Stations






























Interactive Weather Map New forecast layout! Learn more

10-Day Weather Forecast

Advertisements
Track Severe Weather on mobile